createdAt,value
2018-04-22T00:00:03.202Z,15.91
2018-04-22T00:00:07.411Z,15.91
2018-04-22T00:00:11.409Z,15.9
2018-04-22T00:00:15.618Z,15.9
2018-04-22T00:00:19.829Z,15.89
2018-04-22T00:00:23.938Z,15.9
2018-04-22T00:00:28.033Z,15.9
2018-04-22T00:00:32.134Z,15.9
2018-04-22T00:00:36.350Z,15.9
2018-04-22T00:00:40.556Z,15.9
2018-04-22T00:00:44.890Z,15.9
2018-04-22T00:00:49.095Z,15.9
2018-04-22T00:00:53.323Z,15.9
2018-04-22T00:00:57.459Z,15.9
2018-04-22T00:01:01.565Z,15.9
2018-04-22T00:01:05.781Z,15.89
2018-04-22T00:01:10.122Z,15.9
2018-04-22T00:01:14.347Z,15.89
2018-04-22T00:01:18.657Z,15.88
2018-04-22T00:01:22.878Z,15.88
2018-04-22T00:01:27.197Z,15.89
2018-04-22T00:01:31.301Z,15.89
2018-04-22T00:01:35.404Z,15.89
2018-04-22T00:01:39.611Z,15.89
2018-04-22T00:01:43.714Z,15.89
2018-04-22T00:01:47.882Z,15.89
2018-04-22T00:01:52.087Z,15.88
2018-04-22T00:01:56.298Z,15.89
2018-04-22T00:02:00.629Z,15.89
2018-04-22T00:02:04.996Z,15.88
2018-04-22T00:02:09.096Z,15.88
2018-04-22T00:02:13.412Z,15.88
2018-04-22T00:02:17.622Z,15.89
2018-04-22T00:02:21.827Z,15.88
2018-04-22T00:02:25.937Z,15.88
2018-04-22T00:02:30.043Z,15.88
2018-04-22T00:02:34.377Z,15.89
2018-04-22T00:02:38.484Z,15.88
2018-04-22T00:02:42.687Z,15.88
2018-04-22T00:02:46.785Z,15.87
2018-04-22T00:02:50.782Z,15.88
2018-04-22T00:02:54.997Z,15.88
2018-04-22T00:02:59.324Z,15.87
2018-04-22T00:03:03.423Z,15.87
2018-04-22T00:03:07.627Z,15.87
2018-04-22T00:03:11.745Z,15.87
2018-04-22T00:03:16.007Z,15.86
2018-04-22T00:03:20.326Z,15.87
2018-04-22T00:03:24.430Z,15.87
2018-04-22T00:03:28.751Z,15.87
2018-04-22T00:03:32.852Z,15.86
2018-04-22T00:03:36.961Z,15.87
2018-04-22T00:03:41.181Z,15.86
2018-04-22T00:03:45.499Z,15.87
2018-04-22T00:03:49.712Z,15.85
2018-04-22T00:03:53.925Z,15.86
2018-04-22T00:03:58.024Z,15.86
2018-04-22T00:04:02.134Z,15.86
2018-04-22T00:04:06.356Z,15.87
2018-04-22T00:04:10.678Z,15.87
2018-04-22T00:04:14.883Z,15.86
2018-04-22T00:04:19.199Z,15.85
2018-04-22T00:04:23.303Z,15.85
2018-04-22T00:04:27.536Z,15.85
2018-04-22T00:04:31.747Z,15.85
2018-04-22T00:04:35.958Z,15.85
2018-04-22T00:04:40.163Z,15.85
2018-04-22T00:04:44.485Z,15.84
2018-04-22T00:04:48.636Z,15.84
2018-04-22T00:04:53.057Z,15.85
2018-04-22T00:04:57.467Z,15.85
2018-04-22T00:05:02.026Z,15.84
2018-04-22T00:05:06.022Z,15.84
2018-04-22T00:05:10.242Z,15.84
2018-04-22T00:05:14.456Z,15.83
2018-04-22T00:05:18.558Z,15.84
2018-04-22T00:05:22.658Z,15.84
2018-04-22T00:05:26.767Z,15.83
2018-04-22T00:05:30.982Z,15.83
2018-04-22T00:05:35.191Z,15.84
2018-04-22T00:05:39.293Z,15.83
2018-04-22T00:05:43.616Z,15.83
2018-04-22T00:05:47.924Z,15.82
2018-04-22T00:05:52.140Z,15.83
2018-04-22T00:05:56.453Z,15.83
2018-04-22T00:06:00.666Z,15.82
2018-04-22T00:06:04.777Z,15.82
2018-04-22T00:06:08.985Z,15.82
2018-04-22T00:06:13.193Z,15.82
2018-04-22T00:06:17.507Z,15.82
2018-04-22T00:06:21.822Z,15.82
2018-04-22T00:06:26.029Z,15.82
2018-04-22T00:06:30.348Z,15.82
2018-04-22T00:06:34.458Z,15.81
2018-04-22T00:06:38.673Z,15.82
2018-04-22T00:06:42.881Z,15.82
2018-04-22T00:06:46.872Z,15.81
2018-04-22T00:06:51.080Z,15.81
2018-04-22T00:06:55.200Z,15.82
2018-04-22T00:06:59.410Z,15.81
2018-04-22T00:07:03.625Z,15.82
2018-04-22T00:07:07.726Z,15.81
2018-04-22T00:07:12.037Z,15.81
2018-04-22T00:07:16.244Z,15.81
2018-04-22T00:07:20.452Z,15.79
2018-04-22T00:07:24.851Z,15.8
2018-04-22T00:07:29.065Z,15.8
2018-04-22T00:07:33.274Z,15.81
2018-04-22T00:07:37.480Z,15.8
2018-04-22T00:07:41.705Z,15.79
2018-04-22T00:07:45.909Z,15.8
2018-04-22T00:07:50.131Z,15.79
2018-04-22T00:07:54.453Z,15.79
2018-04-22T00:07:58.564Z,15.79
2018-04-22T00:08:02.567Z,15.79
2018-04-22T00:08:06.776Z,15.79
2018-04-22T00:08:11.099Z,15.78
2018-04-22T00:08:15.198Z,15.78
2018-04-22T00:08:19.408Z,15.79
2018-04-22T00:08:23.613Z,15.78
2018-04-22T00:08:27.710Z,15.78
2018-04-22T00:08:32.093Z,15.77
2018-04-22T00:08:36.199Z,15.77
2018-04-22T00:08:40.515Z,15.78
2018-04-22T00:08:44.829Z,15.76
2018-04-22T00:08:49.040Z,15.78
2018-04-22T00:08:53.140Z,15.77
2018-04-22T00:08:57.461Z,15.77
2018-04-22T00:09:01.562Z,15.77
2018-04-22T00:09:05.617Z,15.77
2018-04-22T00:09:09.716Z,15.76
2018-04-22T00:09:13.837Z,15.76
2018-04-22T00:09:18.048Z,15.75
2018-04-22T00:09:22.383Z,15.76
2018-04-22T00:09:26.484Z,15.76
2018-04-22T00:09:30.477Z,15.76
2018-04-22T00:09:34.577Z,15.76
2018-04-22T00:09:38.901Z,15.74
2018-04-22T00:09:43.115Z,15.75
2018-04-22T00:09:47.432Z,15.75
2018-04-22T00:09:51.641Z,15.74
2018-04-22T00:09:55.863Z,15.74
2018-04-22T00:10:00.075Z,15.73
2018-04-22T00:10:04.142Z,15.74
2018-04-22T00:10:08.355Z,15.74
2018-04-22T00:10:12.669Z,15.74
2018-04-22T00:10:16.768Z,15.73
2018-04-22T00:10:20.862Z,15.73
2018-04-22T00:10:25.064Z,15.73
2018-04-22T00:10:29.281Z,15.72
2018-04-22T00:10:33.390Z,15.72
2018-04-22T00:10:37.596Z,15.72
2018-04-22T00:10:41.809Z,15.71
2018-04-22T00:10:46.019Z,15.71
2018-04-22T00:10:50.134Z,15.71
2018-04-22T00:10:54.369Z,15.71
2018-04-22T00:10:58.598Z,15.7
2018-04-22T00:11:02.592Z,15.71
2018-04-22T00:11:06.920Z,15.71
2018-04-22T00:11:11.128Z,15.7
2018-04-22T00:11:15.123Z,15.7
2018-04-22T00:11:19.440Z,15.7
2018-04-22T00:11:23.649Z,15.7
2018-04-22T00:11:27.961Z,15.69
2018-04-22T00:11:31.952Z,15.69
2018-04-22T00:11:36.162Z,15.69
2018-04-22T00:11:40.384Z,15.69
2018-04-22T00:11:44.597Z,15.69
2018-04-22T00:11:48.980Z,15.68
2018-04-22T00:11:53.210Z,15.68
2018-04-22T00:11:57.524Z,15.68
2018-04-22T00:12:01.732Z,15.68
2018-04-22T00:12:05.830Z,15.67
2018-04-22T00:12:10.039Z,15.68
2018-04-22T00:12:14.380Z,15.67
2018-04-22T00:12:18.586Z,15.67
2018-04-22T00:12:22.911Z,15.67
2018-04-22T00:12:27.113Z,15.67
2018-04-22T00:12:31.438Z,15.66
2018-04-22T00:12:35.435Z,15.67
2018-04-22T00:12:39.652Z,15.65
2018-04-22T00:12:43.868Z,15.65
2018-04-22T00:12:48.181Z,15.65
2018-04-22T00:12:52.494Z,15.66
2018-04-22T00:12:56.710Z,15.65
2018-04-22T00:13:01.027Z,15.64
2018-04-22T00:13:05.137Z,15.64
2018-04-22T00:13:09.345Z,15.64
2018-04-22T00:13:13.554Z,15.64
2018-04-22T00:13:17.871Z,15.64
2018-04-22T00:13:21.975Z,15.63
2018-04-22T00:13:26.306Z,15.63
2018-04-22T00:13:30.513Z,15.63
2018-04-22T00:13:34.523Z,15.63
2018-04-22T00:13:38.731Z,15.63
2018-04-22T00:13:42.936Z,15.62
2018-04-22T00:13:47.150Z,15.62
2018-04-22T00:13:51.251Z,15.62
2018-04-22T00:13:55.468Z,15.62
2018-04-22T00:13:59.784Z,15.61
2018-04-22T00:14:03.994Z,15.61
2018-04-22T00:14:08.207Z,15.6
2018-04-22T00:14:12.307Z,15.6
2018-04-22T00:14:16.424Z,15.6
2018-04-22T00:14:20.756Z,15.6
2018-04-22T00:14:24.873Z,15.6
2018-04-22T00:14:29.200Z,15.59
2018-04-22T00:14:33.295Z,15.59
2018-04-22T00:14:37.397Z,15.59
2018-04-22T00:14:41.716Z,15.59
2018-04-22T00:14:45.818Z,15.59
2018-04-22T00:14:49.923Z,15.58
2018-04-22T00:14:53.915Z,15.58
2018-04-22T00:14:58.126Z,15.58
2018-04-22T00:15:02.225Z,15.57
2018-04-22T00:15:06.216Z,15.57
2018-04-22T00:15:10.530Z,15.56
2018-04-22T00:15:14.742Z,15.57
2018-04-22T00:15:18.844Z,15.57
2018-04-22T00:15:22.945Z,15.57
2018-04-22T00:15:27.163Z,15.57
2018-04-22T00:15:31.377Z,15.56
2018-04-22T00:15:35.480Z,15.56
2018-04-22T00:15:39.687Z,15.56
2018-04-22T00:15:44.000Z,15.55
2018-04-22T00:15:47.883Z,15.55
2018-04-22T00:15:52.091Z,15.55
2018-04-22T00:15:56.411Z,15.55
2018-04-22T00:16:00.508Z,15.55
2018-04-22T00:16:04.664Z,15.55
2018-04-22T00:16:08.873Z,15.54
2018-04-22T00:16:13.191Z,15.54
2018-04-22T00:16:17.404Z,15.53
2018-04-22T00:16:21.505Z,15.53
2018-04-22T00:16:25.825Z,15.53
2018-04-22T00:16:30.036Z,15.52
2018-04-22T00:16:34.248Z,15.52
2018-04-22T00:16:38.570Z,15.53
2018-04-22T00:16:42.777Z,15.52
2018-04-22T00:16:47.105Z,15.53
2018-04-22T00:16:51.428Z,15.51
2018-04-22T00:16:55.802Z,15.52
2018-04-22T00:16:59.906Z,15.51
2018-04-22T00:17:04.167Z,15.52
2018-04-22T00:17:08.380Z,15.51
2018-04-22T00:17:12.586Z,15.51
2018-04-22T00:17:16.793Z,15.51
2018-04-22T00:17:20.892Z,15.51
2018-04-22T00:17:25.048Z,15.51
2018-04-22T00:17:29.151Z,15.5
2018-04-22T00:17:33.355Z,15.51
2018-04-22T00:17:37.562Z,15.49
2018-04-22T00:17:41.877Z,15.5
2018-04-22T00:17:46.196Z,15.5
2018-04-22T00:17:50.409Z,15.5
2018-04-22T00:17:54.721Z,15.5
2018-04-22T00:17:59.039Z,15.49
2018-04-22T00:18:03.395Z,15.49
2018-04-22T00:18:07.613Z,15.48
2018-04-22T00:18:11.716Z,15.48
2018-04-22T00:18:16.035Z,15.49
2018-04-22T00:18:20.241Z,15.48
2018-04-22T00:18:24.549Z,15.49
2018-04-22T00:18:28.540Z,15.48
2018-04-22T00:18:32.760Z,15.48
2018-04-22T00:18:36.860Z,15.48
2018-04-22T00:18:40.966Z,15.47
2018-04-22T00:18:45.068Z,15.48
2018-04-22T00:18:49.273Z,15.47
2018-04-22T00:18:53.587Z,15.47
2018-04-22T00:18:57.909Z,15.47
2018-04-22T00:19:02.115Z,15.47
2018-04-22T00:19:06.452Z,15.47
2018-04-22T00:19:10.569Z,15.47
2018-04-22T00:19:14.876Z,15.46
2018-04-22T00:19:19.085Z,15.47
2018-04-22T00:19:23.403Z,15.47
2018-04-22T00:19:27.396Z,15.47
2018-04-22T00:19:31.492Z,15.46
2018-04-22T00:19:35.713Z,15.46
2018-04-22T00:19:40.026Z,15.45
2018-04-22T00:19:44.436Z,15.45
2018-04-22T00:19:49.051Z,15.46
2018-04-22T00:19:53.486Z,15.45
2018-04-22T00:19:57.810Z,15.45
2018-04-22T00:20:02.030Z,15.45
2018-04-22T00:20:05.813Z,15.45
2018-04-22T00:20:10.142Z,15.45
2018-04-22T00:20:14.463Z,15.45
2018-04-22T00:20:18.567Z,15.44
2018-04-22T00:20:22.893Z,15.44
2018-04-22T00:20:27.099Z,15.44
2018-04-22T00:20:31.311Z,15.44
2018-04-22T00:20:35.423Z,15.44
2018-04-22T00:20:39.521Z,15.44
2018-04-22T00:20:43.728Z,15.43
2018-04-22T00:20:47.936Z,15.43
2018-04-22T00:20:52.045Z,15.43
2018-04-22T00:20:56.401Z,15.43
2018-04-22T00:21:00.622Z,15.43
2018-04-22T00:21:04.834Z,15.43
2018-04-22T00:21:09.151Z,15.42
2018-04-22T00:21:13.366Z,15.42
2018-04-22T00:21:17.572Z,15.42
2018-04-22T00:21:21.781Z,15.42
2018-04-22T00:21:26.113Z,15.42
2018-04-22T00:21:30.211Z,15.42
2018-04-22T00:21:34.425Z,15.42
2018-04-22T00:21:38.755Z,15.41
2018-04-22T00:21:42.964Z,15.41
2018-04-22T00:21:47.176Z,15.41
2018-04-22T00:21:51.381Z,15.41
2018-04-22T00:21:55.372Z,15.41
2018-04-22T00:21:59.479Z,15.41
2018-04-22T00:22:03.691Z,15.41
2018-04-22T00:22:07.900Z,15.4
2018-04-22T00:22:12.114Z,15.41
2018-04-22T00:22:16.326Z,15.4
2018-04-22T00:22:20.644Z,15.39
2018-04-22T00:22:24.641Z,15.39
2018-04-22T00:22:28.857Z,15.39
2018-04-22T00:22:33.012Z,15.39
2018-04-22T00:22:37.226Z,15.39
2018-04-22T00:22:41.430Z,15.38
2018-04-22T00:22:45.762Z,15.38
2018-04-22T00:22:50.078Z,15.38
2018-04-22T00:22:54.409Z,15.37
2018-04-22T00:22:58.619Z,15.38
2018-04-22T00:23:02.996Z,15.37
2018-04-22T00:23:07.320Z,15.37
2018-04-22T00:23:11.424Z,15.37
2018-04-22T00:23:15.631Z,15.37
2018-04-22T00:23:19.837Z,15.37
2018-04-22T00:23:23.938Z,15.37
2018-04-22T00:23:28.158Z,15.36
2018-04-22T00:23:32.257Z,15.37
2018-04-22T00:23:36.616Z,15.36
2018-04-22T00:23:40.721Z,15.36
2018-04-22T00:23:44.835Z,15.35
2018-04-22T00:23:49.152Z,15.35
2018-04-22T00:23:53.479Z,15.35
2018-04-22T00:23:57.576Z,15.34
2018-04-22T00:24:01.682Z,15.34
2018-04-22T00:24:05.894Z,15.34
2018-04-22T00:24:09.909Z,15.34
2018-04-22T00:24:14.227Z,15.33
2018-04-22T00:24:18.326Z,15.33
2018-04-22T00:24:22.650Z,15.34
2018-04-22T00:24:26.865Z,15.32
2018-04-22T00:24:31.074Z,15.33
2018-04-22T00:24:35.386Z,15.33
2018-04-22T00:24:39.492Z,15.33
2018-04-22T00:24:43.591Z,15.32
2018-04-22T00:24:47.966Z,15.33
2018-04-22T00:24:52.065Z,15.32
2018-04-22T00:24:56.173Z,15.32
2018-04-22T00:25:00.383Z,15.32
2018-04-22T00:25:04.426Z,15.3
2018-04-22T00:25:08.536Z,15.31
2018-04-22T00:25:12.656Z,15.31
2018-04-22T00:25:16.874Z,15.3
2018-04-22T00:25:20.864Z,15.3
2018-04-22T00:25:25.068Z,15.31
2018-04-22T00:25:29.165Z,15.3
2018-04-22T00:25:33.277Z,15.3
2018-04-22T00:25:37.492Z,15.3
2018-04-22T00:25:41.699Z,15.29
2018-04-22T00:25:45.687Z,15.3
2018-04-22T00:25:49.994Z,15.29
2018-04-22T00:25:54.200Z,15.3
2018-04-22T00:25:58.325Z,15.29
2018-04-22T00:26:02.592Z,15.29
2018-04-22T00:26:06.807Z,15.29
2018-04-22T00:26:11.018Z,15.28
2018-04-22T00:26:15.227Z,15.28
2018-04-22T00:26:19.330Z,15.28
2018-04-22T00:26:23.645Z,15.27
2018-04-22T00:26:27.960Z,15.27
2018-04-22T00:26:32.299Z,15.27
2018-04-22T00:26:36.525Z,15.27
2018-04-22T00:26:40.840Z,15.27
2018-04-22T00:26:45.166Z,15.26
2018-04-22T00:26:49.372Z,15.27
2018-04-22T00:26:53.590Z,15.26
2018-04-22T00:26:57.735Z,15.26
2018-04-22T00:27:01.954Z,15.26
2018-04-22T00:27:06.275Z,15.25
2018-04-22T00:27:10.603Z,15.26
2018-04-22T00:27:14.816Z,15.25
2018-04-22T00:27:18.913Z,15.25
2018-04-22T00:27:23.239Z,15.25
2018-04-22T00:27:27.588Z,15.25
2018-04-22T00:27:31.907Z,15.25
2018-04-22T00:27:36.003Z,15.24
2018-04-22T00:27:40.216Z,15.24
2018-04-22T00:27:44.431Z,15.24
2018-04-22T00:27:48.538Z,15.24
2018-04-22T00:27:52.857Z,15.23
2018-04-22T00:27:56.857Z,15.23
2018-04-22T00:28:00.953Z,15.22
2018-04-22T00:28:04.947Z,15.23
2018-04-22T00:28:09.043Z,15.23
2018-04-22T00:28:13.358Z,15.23
2018-04-22T00:28:17.571Z,15.22
2018-04-22T00:28:21.774Z,15.22
2018-04-22T00:28:25.981Z,15.22
2018-04-22T00:28:30.188Z,15.22
2018-04-22T00:28:34.522Z,15.22
2018-04-22T00:28:38.838Z,15.22
2018-04-22T00:28:43.146Z,15.21
2018-04-22T00:28:47.253Z,15.21
2018-04-22T00:28:51.458Z,15.2
2018-04-22T00:28:55.454Z,15.2
2018-04-22T00:28:59.605Z,15.2
2018-04-22T00:29:03.807Z,15.2
2018-04-22T00:29:08.118Z,15.2
2018-04-22T00:29:12.325Z,15.19
2018-04-22T00:29:16.533Z,15.19
2018-04-22T00:29:20.853Z,15.19
2018-04-22T00:29:24.956Z,15.18
2018-04-22T00:29:28.974Z,15.18
2018-04-22T00:29:33.076Z,15.18
2018-04-22T00:29:37.284Z,15.18
2018-04-22T00:29:41.494Z,15.18
2018-04-22T00:29:45.808Z,15.18
2018-04-22T00:29:49.912Z,15.18
2018-04-22T00:29:54.117Z,15.17
2018-04-22T00:29:58.462Z,15.16
2018-04-22T00:30:02.675Z,15.17
2018-04-22T00:30:06.903Z,15.17
2018-04-22T00:30:11.015Z,15.17
2018-04-22T00:30:15.219Z,15.16
2018-04-22T00:30:19.437Z,15.16
2018-04-22T00:30:23.642Z,15.15
2018-04-22T00:30:27.854Z,15.16
2018-04-22T00:30:32.114Z,15.15
2018-04-22T00:30:36.327Z,15.15
2018-04-22T00:30:40.661Z,15.15
2018-04-22T00:30:44.869Z,15.15
2018-04-22T00:30:49.075Z,15.15
2018-04-22T00:30:53.296Z,15.14
2018-04-22T00:30:57.610Z,15.14
2018-04-22T00:31:01.926Z,15.14
2018-04-22T00:31:06.137Z,15.14
2018-04-22T00:31:10.389Z,15.14
2018-04-22T00:31:14.617Z,15.13
2018-04-22T00:31:18.822Z,15.13
2018-04-22T00:31:23.037Z,15.13
2018-04-22T00:31:27.357Z,15.13
2018-04-22T00:31:31.567Z,15.12
2018-04-22T00:31:35.888Z,15.13
2018-04-22T00:31:40.208Z,15.12
2018-04-22T00:31:44.417Z,15.12
2018-04-22T00:31:48.729Z,15.12
2018-04-22T00:31:52.942Z,15.12
2018-04-22T00:31:57.256Z,15.11
2018-04-22T00:32:01.575Z,15.11
2018-04-22T00:32:05.682Z,15.1
2018-04-22T00:32:09.889Z,15.09
2018-04-22T00:32:14.099Z,15.1
2018-04-22T00:32:18.306Z,15.09
2018-04-22T00:32:22.530Z,15.1
2018-04-22T00:32:26.645Z,15.1
2018-04-22T00:32:30.754Z,15.09
2018-04-22T00:32:34.964Z,15.09
2018-04-22T00:32:39.170Z,15.08
2018-04-22T00:32:43.442Z,15.07
2018-04-22T00:32:47.651Z,15.08
2018-04-22T00:32:51.968Z,15.09
2018-04-22T00:32:56.069Z,15.07
2018-04-22T00:33:00.166Z,15.08
2018-04-22T00:33:04.271Z,15.07
2018-04-22T00:33:08.494Z,15.07
2018-04-22T00:33:12.810Z,15.06
2018-04-22T00:33:17.031Z,15.07
2018-04-22T00:33:21.238Z,15.06
2018-04-22T00:33:25.559Z,15.07
2018-04-22T00:33:29.875Z,15.06
2018-04-22T00:33:33.984Z,15.07
2018-04-22T00:33:38.189Z,15.05
2018-04-22T00:33:42.177Z,15.05
2018-04-22T00:33:46.279Z,15.05
2018-04-22T00:33:50.487Z,15.05
2018-04-22T00:33:54.799Z,15.05
2018-04-22T00:33:59.007Z,15.05
2018-04-22T00:34:02.998Z,15.04
2018-04-22T00:34:07.355Z,15.05
2018-04-22T00:34:11.674Z,15.04
2018-04-22T00:34:15.987Z,15.04
2018-04-22T00:34:20.198Z,15.04
2018-04-22T00:34:24.517Z,15.04
2018-04-22T00:34:28.779Z,15.04
2018-04-22T00:34:32.896Z,15.04
2018-04-22T00:34:37.106Z,15.04
2018-04-22T00:34:41.319Z,15.04
2018-04-22T00:34:45.530Z,15.03
2018-04-22T00:34:49.747Z,15.02
2018-04-22T00:34:53.847Z,15.03
2018-04-22T00:34:58.166Z,15.02
2018-04-22T00:35:02.371Z,15.03
2018-04-22T00:35:06.155Z,15.02
2018-04-22T00:35:10.374Z,15.02
2018-04-22T00:35:14.697Z,15.02
2018-04-22T00:35:18.800Z,15.02
2018-04-22T00:35:22.793Z,15.01
2018-04-22T00:35:27.119Z,15
2018-04-22T00:35:31.329Z,15.01
2018-04-22T00:35:35.545Z,15.01
2018-04-22T00:35:39.642Z,15
2018-04-22T00:35:43.850Z,15.01
2018-04-22T00:35:48.062Z,15
2018-04-22T00:35:52.163Z,15
2018-04-22T00:35:56.371Z,15
2018-04-22T00:36:00.591Z,14.99
2018-04-22T00:36:04.696Z,14.99
2018-04-22T00:36:08.802Z,14.99
2018-04-22T00:36:13.067Z,14.99
2018-04-22T00:36:17.274Z,14.99
2018-04-22T00:36:21.482Z,14.99
2018-04-22T00:36:25.800Z,14.99
2018-04-22T00:36:30.120Z,14.99
2018-04-22T00:36:34.333Z,14.98
2018-04-22T00:36:38.560Z,14.98
2018-04-22T00:36:42.781Z,14.97
2018-04-22T00:36:46.995Z,14.98
2018-04-22T00:36:51.319Z,14.97
2018-04-22T00:36:55.535Z,14.98
2018-04-22T00:36:59.674Z,14.97
2018-04-22T00:37:03.776Z,14.98
2018-04-22T00:37:07.896Z,14.97
2018-04-22T00:37:12.222Z,14.97
2018-04-22T00:37:16.325Z,14.97
2018-04-22T00:37:20.431Z,14.96
2018-04-22T00:37:24.755Z,14.96
2018-04-22T00:37:29.071Z,14.96
2018-04-22T00:37:33.283Z,14.97
2018-04-22T00:37:37.379Z,14.96
2018-04-22T00:37:41.588Z,14.96
2018-04-22T00:37:45.918Z,14.96
2018-04-22T00:37:50.153Z,14.96
2018-04-22T00:37:54.466Z,14.95
2018-04-22T00:37:58.567Z,14.95
2018-04-22T00:38:02.608Z,14.95
2018-04-22T00:38:06.603Z,14.95
2018-04-22T00:38:10.824Z,14.95
2018-04-22T00:38:15.143Z,14.94
2018-04-22T00:38:19.480Z,14.94
2018-04-22T00:38:23.698Z,14.94
2018-04-22T00:38:27.907Z,14.94
2018-04-22T00:38:32.223Z,14.94
2018-04-22T00:38:36.428Z,14.93
2018-04-22T00:38:40.748Z,14.94
2018-04-22T00:38:44.959Z,14.93
2018-04-22T00:38:49.289Z,14.93
2018-04-22T00:38:53.394Z,14.92
2018-04-22T00:38:57.175Z,14.93
2018-04-22T00:39:01.275Z,14.92
2018-04-22T00:39:05.381Z,14.93
2018-04-22T00:39:09.695Z,14.93
2018-04-22T00:39:13.795Z,14.93
2018-04-22T00:39:17.898Z,14.92
2018-04-22T00:39:21.995Z,14.92
2018-04-22T00:39:26.100Z,14.92
2018-04-22T00:39:30.099Z,14.91
2018-04-22T00:39:34.308Z,14.91
2018-04-22T00:39:38.515Z,14.91
2018-04-22T00:39:42.718Z,14.91
2018-04-22T00:39:47.032Z,14.91
2018-04-22T00:39:51.355Z,14.91
2018-04-22T00:39:55.569Z,14.91
2018-04-22T00:39:59.798Z,14.9
2018-04-22T00:40:03.834Z,14.9
2018-04-22T00:40:07.940Z,14.9
2018-04-22T00:40:12.153Z,14.89
2018-04-22T00:40:16.472Z,14.9
2018-04-22T00:40:20.571Z,14.89
2018-04-22T00:40:24.677Z,14.9
2018-04-22T00:40:28.888Z,14.89
2018-04-22T00:40:33.095Z,14.89
2018-04-22T00:40:37.199Z,14.89
2018-04-22T00:40:41.405Z,14.88
2018-04-22T00:40:45.719Z,14.89
2018-04-22T00:40:49.922Z,14.89
2018-04-22T00:40:54.045Z,14.88
2018-04-22T00:40:58.357Z,14.87
2018-04-22T00:41:02.511Z,14.88
2018-04-22T00:41:06.719Z,14.88
2018-04-22T00:41:10.829Z,14.87
2018-04-22T00:41:14.931Z,14.87
2018-04-22T00:41:19.249Z,14.88
2018-04-22T00:41:23.576Z,14.87
2018-04-22T00:41:27.587Z,14.86
2018-04-22T00:41:31.692Z,14.87
2018-04-22T00:41:35.900Z,14.87
2018-04-22T00:41:40.127Z,14.87
2018-04-22T00:41:44.440Z,14.86
2018-04-22T00:41:48.649Z,14.87
2018-04-22T00:41:52.858Z,14.86
2018-04-22T00:41:56.857Z,14.87
2018-04-22T00:42:00.956Z,14.86
2018-04-22T00:42:05.067Z,14.85
2018-04-22T00:42:09.071Z,14.87
2018-04-22T00:42:13.390Z,14.86
2018-04-22T00:42:17.710Z,14.86
2018-04-22T00:42:21.815Z,14.86
2018-04-22T00:42:26.132Z,14.86
2018-04-22T00:42:30.363Z,14.86
2018-04-22T00:42:34.570Z,14.85
2018-04-22T00:42:38.893Z,14.86
2018-04-22T00:42:42.886Z,14.85
2018-04-22T00:42:47.203Z,14.86
2018-04-22T00:42:51.533Z,14.85
2018-04-22T00:42:55.743Z,14.86
2018-04-22T00:42:59.847Z,14.85
2018-04-22T00:43:04.078Z,14.85
2018-04-22T00:43:08.175Z,14.85
2018-04-22T00:43:12.384Z,14.84
2018-04-22T00:43:16.486Z,14.85
2018-04-22T00:43:20.698Z,14.85
2018-04-22T00:43:25.018Z,14.85
2018-04-22T00:43:29.335Z,14.86
2018-04-22T00:43:33.903Z,14.84
2018-04-22T00:43:38.336Z,14.85
2018-04-22T00:43:42.656Z,14.84
2018-04-22T00:43:46.978Z,14.85
2018-04-22T00:43:51.339Z,14.85
2018-04-22T00:43:55.436Z,14.84
2018-04-22T00:43:59.762Z,14.85
2018-04-22T00:44:03.973Z,14.84
2018-04-22T00:44:08.188Z,14.84
2018-04-22T00:44:12.502Z,14.84
2018-04-22T00:44:16.715Z,14.85
2018-04-22T00:44:21.047Z,14.85
2018-04-22T00:44:25.267Z,14.84
2018-04-22T00:44:29.374Z,14.84
2018-04-22T00:44:33.472Z,14.84
2018-04-22T00:44:37.577Z,14.84
2018-04-22T00:44:41.802Z,14.85
2018-04-22T00:44:46.024Z,14.84
2018-04-22T00:44:50.128Z,14.84
2018-04-22T00:44:54.448Z,14.84
2018-04-22T00:44:58.554Z,14.84
2018-04-22T00:45:02.788Z,14.84
2018-04-22T00:45:07.001Z,14.84
2018-04-22T00:45:11.219Z,14.83
2018-04-22T00:45:15.539Z,14.84
2018-04-22T00:45:19.853Z,14.84
2018-04-22T00:45:24.061Z,14.84
2018-04-22T00:45:28.158Z,14.83
2018-04-22T00:45:32.265Z,14.83
2018-04-22T00:45:36.373Z,14.83
2018-04-22T00:45:40.581Z,14.84
2018-04-22T00:45:44.899Z,14.83
2018-04-22T00:45:49.221Z,14.83
2018-04-22T00:45:53.433Z,14.82
2018-04-22T00:45:57.746Z,14.82
2018-04-22T00:46:02.053Z,14.82
2018-04-22T00:46:06.050Z,14.82
2018-04-22T00:46:10.258Z,14.82
2018-04-22T00:46:14.573Z,14.82
2018-04-22T00:46:18.782Z,14.81
2018-04-22T00:46:22.989Z,14.82
2018-04-22T00:46:27.300Z,14.82
2018-04-22T00:46:31.671Z,14.82
2018-04-22T00:46:35.663Z,14.82
2018-04-22T00:46:39.875Z,14.81
2018-04-22T00:46:44.193Z,14.81
2018-04-22T00:46:48.310Z,14.81
2018-04-22T00:46:52.522Z,14.81
2018-04-22T00:46:56.792Z,14.81
2018-04-22T00:47:01.001Z,14.81
2018-04-22T00:47:04.995Z,14.81
2018-04-22T00:47:08.984Z,14.81
2018-04-22T00:47:13.314Z,14.81
2018-04-22T00:47:17.633Z,14.8
2018-04-22T00:47:21.953Z,14.82
2018-04-22T00:47:26.171Z,14.81
2018-04-22T00:47:30.389Z,14.8
2018-04-22T00:47:34.706Z,14.8
2018-04-22T00:47:39.072Z,14.8
2018-04-22T00:47:43.387Z,14.81
2018-04-22T00:47:47.598Z,14.8
2018-04-22T00:47:51.810Z,14.8
2018-04-22T00:47:55.908Z,14.8
2018-04-22T00:48:00.118Z,14.8
2018-04-22T00:48:04.230Z,14.8
2018-04-22T00:48:08.299Z,14.79
2018-04-22T00:48:12.590Z,14.8
2018-04-22T00:48:16.910Z,14.79
2018-04-22T00:48:21.125Z,14.79
2018-04-22T00:48:25.331Z,14.8
2018-04-22T00:48:29.540Z,14.79
2018-04-22T00:48:33.765Z,14.79
2018-04-22T00:48:37.971Z,14.78
2018-04-22T00:48:42.205Z,14.79
2018-04-22T00:48:46.519Z,14.79
2018-04-22T00:48:50.619Z,14.8
2018-04-22T00:48:54.939Z,14.79
2018-04-22T00:48:59.047Z,14.79
2018-04-22T00:49:03.256Z,14.79
2018-04-22T00:49:07.368Z,14.79
2018-04-22T00:49:11.580Z,14.79
2018-04-22T00:49:15.796Z,14.79
2018-04-22T00:49:20.158Z,14.78
2018-04-22T00:49:24.364Z,14.79
2018-04-22T00:49:28.356Z,14.79
2018-04-22T00:49:32.456Z,14.79
2018-04-22T00:49:36.560Z,14.79
2018-04-22T00:49:40.764Z,14.78
2018-04-22T00:49:44.970Z,14.79
2018-04-22T00:49:49.286Z,14.79
2018-04-22T00:49:53.497Z,14.79
2018-04-22T00:49:57.606Z,14.79
2018-04-22T00:50:01.710Z,14.79
2018-04-22T00:50:05.713Z,14.78
2018-04-22T00:50:10.026Z,14.79
2018-04-22T00:50:14.134Z,14.79
2018-04-22T00:50:18.456Z,14.79
2018-04-22T00:50:22.661Z,14.78
2018-04-22T00:50:26.878Z,14.78
2018-04-22T00:50:31.200Z,14.79
2018-04-22T00:50:35.522Z,14.79
2018-04-22T00:50:39.735Z,14.79
2018-04-22T00:50:44.059Z,14.79
2018-04-22T00:50:48.374Z,14.79
2018-04-22T00:50:52.702Z,14.79
2018-04-22T00:50:56.715Z,14.79
2018-04-22T00:51:00.823Z,14.79
2018-04-22T00:51:04.819Z,14.79
2018-04-22T00:51:08.704Z,14.8
2018-04-22T00:51:13.026Z,14.79
2018-04-22T00:51:17.239Z,14.8
2018-04-22T00:51:21.349Z,14.8
2018-04-22T00:51:25.347Z,14.79
2018-04-22T00:51:29.339Z,14.79
2018-04-22T00:51:33.555Z,14.8
2018-04-22T00:51:37.875Z,14.79
2018-04-22T00:51:41.981Z,14.79
2018-04-22T00:51:46.183Z,14.8
2018-04-22T00:51:50.392Z,14.79
2018-04-22T00:51:54.494Z,14.8
2018-04-22T00:51:58.806Z,14.8
2018-04-22T00:52:02.915Z,14.8
2018-04-22T00:52:06.920Z,14.81
2018-04-22T00:52:11.125Z,14.8
2018-04-22T00:52:15.335Z,14.81
2018-04-22T00:52:19.550Z,14.81
2018-04-22T00:52:23.757Z,14.82
2018-04-22T00:52:27.975Z,14.8
2018-04-22T00:52:32.078Z,14.81
2018-04-22T00:52:36.075Z,14.8
2018-04-22T00:52:40.406Z,14.81
2018-04-22T00:52:44.728Z,14.81
2018-04-22T00:52:49.037Z,14.81
2018-04-22T00:52:53.352Z,14.8
2018-04-22T00:52:57.692Z,14.81
2018-04-22T00:53:01.895Z,14.82
2018-04-22T00:53:06.211Z,14.81
2018-04-22T00:53:10.317Z,14.81
2018-04-22T00:53:14.525Z,14.81
2018-04-22T00:53:18.848Z,14.81
2018-04-22T00:53:23.207Z,14.81
2018-04-22T00:53:27.532Z,14.82
2018-04-22T00:53:31.736Z,14.83
2018-04-22T00:53:35.838Z,14.82
2018-04-22T00:53:40.045Z,14.82
2018-04-22T00:53:44.150Z,14.82
2018-04-22T00:53:48.360Z,14.82
2018-04-22T00:53:52.678Z,14.82
2018-04-22T00:53:57.011Z,14.82
2018-04-22T00:54:01.249Z,14.83
2018-04-22T00:54:05.250Z,14.83
2018-04-22T00:54:09.458Z,14.83
2018-04-22T00:54:13.776Z,14.82
2018-04-22T00:54:17.987Z,14.83
2018-04-22T00:54:22.306Z,14.82